Time;durP1;ratioP1;P1;durP2;ratioP2;P2;SDS_P1;SDS_P2;PMS_P1;PMS_P2;Temp;Humidity;BMP_temperature;BMP_pressure;BME280_temperature;BME280_humidity;BME280_pressure;Samples;Min_cycle;Max_cycle;Signal;HPM_P1;HPM_P2
2020/12/15 00:00:37;;;;;;;8.23;3.10;;;11.20;99.90;;;;;;4026090;29;20273;-96
2020/12/15 00:02:38;;;;;;;5.27;2.80;;;11.10;99.90;;;;;;4027713;29;20690;-96
2020/12/15 00:04:41;;;;;;;5.13;2.50;;;10.90;99.90;;;;;;4016091;29;20187;-96
2020/12/15 00:06:59;;;;;;;4.87;2.70;;;11.00;99.90;;;;;;4015348;29;20206;-95
2020/12/15 00:09:00;;;;;;;9.57;2.95;;;10.80;99.90;;;;;;4200670;23;20234;-96
2020/12/15 00:11:24;;;;;;;5.00;2.50;;;10.80;99.90;;;;;;4029704;29;20167;-95
2020/12/15 10:40:17;;;;;;;12.48;7.45;;;11.10;99.90;;;;;;4089765;23;20315;-96
2020/12/15 10:52:21;;;;;;;10.68;7.28;;;10.90;99.90;;;;;;4641371;23;20231;-93
2020/12/15 11:12:35;;;;;;;15.05;8.20;;;10.90;99.90;;;;;;4191043;23;20251;-95
2020/12/15 11:17:30;;;;;;;14.98;8.07;;;11.00;99.90;;;;;;4617723;23;21008;-94
2020/12/15 11:38:27;;;;;;;11.70;7.70;;;11.20;99.90;;;;;;4674503;23;20292;-94
2020/12/15 11:44:01;;;;;;;9.70;7.03;;;11.50;99.90;;;;;;4713341;23;20231;-95
2020/12/15 11:47:19;;;;;;;9.27;6.68;;;11.70;99.90;;;;;;4024020;29;20198;-95
2020/12/15 11:49:26;;;;;;;11.65;7.40;;;11.70;99.90;;;;;;4064660;29;20177;-94
2020/12/15 11:51:55;;;;;;;10.20;7.53;;;11.80;99.90;;;;;;4031041;29;20201;-95
2020/12/15 11:54:46;;;;;;;;;;;;;;;;;;;;;
2020/12/15 11:57:05;;;;;;;;;;;;;;;;;;;;;
2020/12/15 12:17:25;;;;;;;13.77;7.75;;;12.10;99.90;;;;;;4022284;29;20697;-93
2020/12/15 12:19:26;;;;;;;13.93;7.32;;;12.30;99.90;;;;;;4007306;29;20178;-90
2020/12/15 12:21:27;;;;;;;13.25;7.25;;;12.30;99.90;;;;;;3992238;29;20171;-92
2020/12/15 12:23:28;;;;;;;11.90;7.13;;;12.40;99.90;;;;;;3992442;29;20183;-94
2020/12/15 12:25:28;;;;;;;12.45;7.03;;;12.50;99.90;;;;;;4022502;29;20177;-92
2020/12/15 12:27:29;;;;;;;11.98;6.47;;;12.60;99.90;;;;;;4022529;29;20189;-92
2020/12/15 12:29:30;;;;;;;11.85;7.22;;;12.70;99.90;;;;;;4007205;29;20336;-91
2020/12/15 12:31:31;;;;;;;9.65;6.70;;;12.70;99.90;;;;;;4007140;29;20646;-94
2020/12/15 12:33:31;;;;;;;12.65;6.57;;;12.80;99.90;;;;;;4007125;29;20175;-91
2020/12/15 12:35:32;;;;;;;12.20;7.07;;;12.80;99.90;;;;;;3992705;29;20275;-94
2020/12/15 12:37:33;;;;;;;10.25;6.32;;;13.00;99.90;;;;;;3992191;29;20644;-93
2020/12/15 12:39:35;;;;;;;12.52;6.10;;;12.90;99.90;;;;;;3992287;29;20250;-93
2020/12/15 12:41:36;;;;;;;9.98;6.10;;;12.80;99.90;;;;;;3992179;29;20628;-92
2020/12/15 12:43:37;;;;;;;12.70;7.03;;;12.90;99.90;;;;;;4007131;29;20187;-95
2020/12/15 12:45:40;;;;;;;19.27;9.38;;;12.80;99.90;;;;;;3991897;29;20211;-93
2020/12/15 12:47:42;;;;;;;33.85;19.02;;;12.70;99.90;;;;;;3992729;29;20648;-93
2020/12/15 12:49:42;;;;;;;10.63;6.82;;;12.70;99.90;;;;;;4007172;29;20183;-89
2020/12/15 12:51:47;;;;;;;10.52;6.45;;;12.70;99.90;;;;;;3992328;29;20199;-94
2020/12/15 12:53:49;;;;;;;13.25;6.63;;;12.70;99.90;;;;;;4007063;29;20194;-94
2020/12/15 12:55:49;;;;;;;15.13;6.22;;;12.70;99.90;;;;;;4006871;29;20567;-92
2020/12/15 12:57:50;;;;;;;11.20;6.40;;;12.60;99.90;;;;;;3992019;29;20187;-92
2020/12/15 12:59:51;;;;;;;11.80;6.22;;;12.70;99.90;;;;;;4007228;29;20185;-93
2020/12/15 13:01:51;;;;;;;13.95;7.28;;;12.50;99.90;;;;;;3991845;29;20180;-93
2020/12/15 13:03:52;;;;;;;14.15;6.82;;;12.50;99.90;;;;;;4006941;29;20261;-91
2020/12/15 13:05:53;;;;;;;17.25;7.60;;;12.70;99.90;;;;;;4006918;29;20758;-93
2020/12/15 13:07:55;;;;;;;13.75;6.68;;;12.70;99.90;;;;;;4022167;29;20182;-92
2020/12/15 13:09:55;;;;;;;14.77;6.00;;;12.70;99.90;;;;;;4007040;29;20185;-93
2020/12/15 13:11:57;;;;;;;12.68;5.68;;;12.80;99.90;;;;;;3991701;29;20282;-90
2020/12/15 13:13:57;;;;;;;11.57;6.20;;;12.80;99.90;;;;;;4006796;29;20654;-92
2020/12/15 13:15:58;;;;;;;15.20;5.80;;;12.70;99.90;;;;;;4021789;29;20237;-91
2020/12/15 13:17:59;;;;;;;17.60;6.13;;;12.90;99.90;;;;;;4006845;29;20182;-92
2020/12/15 13:19:59;;;;;;;18.58;6.15;;;12.80;99.90;;;;;;4022274;29;20186;-91
2020/12/15 13:22:00;;;;;;;12.05;5.38;;;12.80;99.90;;;;;;3991865;29;20282;-90
2020/12/15 13:24:01;;;;;;;10.30;4.93;;;12.90;99.90;;;;;;4006989;29;20167;-94
2020/12/15 13:26:02;;;;;;;18.77;5.93;;;12.80;99.90;;;;;;4021843;29;20234;-90
2020/12/15 13:28:02;;;;;;;18.27;6.25;;;13.00;99.90;;;;;;4006856;29;20175;-94
2020/12/15 13:30:03;;;;;;;17.00;6.80;;;12.90;99.90;;;;;;4024949;29;20186;-92
2020/12/15 13:32:04;;;;;;;15.50;5.25;;;12.80;99.90;;;;;;4009618;29;20175;-91
2020/12/15 13:34:05;;;;;;;11.82;4.68;;;12.80;99.90;;;;;;4024607;29;20191;-92
2020/12/15 13:36:08;;;;;;;13.07;4.75;;;12.80;99.90;;;;;;4009625;29;20285;-92
2020/12/15 13:38:09;;;;;;;8.40;4.63;;;12.80;99.90;;;;;;3994153;29;20248;-92
2020/12/15 13:40:10;;;;;;;12.35;4.18;;;12.80;99.90;;;;;;4024602;29;20182;-92
2020/12/15 13:42:10;;;;;;;18.00;4.68;;;12.70;99.90;;;;;;4009591;29;20179;-94
2020/12/15 13:44:11;;;;;;;13.25;4.63;;;12.80;99.90;;;;;;4024727;29;20523;-90
2020/12/15 13:46:12;;;;;;;17.75;4.82;;;12.80;99.90;;;;;;4009744;29;20207;-93
2020/12/15 13:48:12;;;;;;;12.65;4.85;;;12.80;99.90;;;;;;4024940;29;20178;-89
2020/12/15 13:50:13;;;;;;;13.20;4.80;;;12.90;99.90;;;;;;3994233;29;20183;-94
2020/12/15 13:52:14;;;;;;;11.00;5.05;;;12.90;99.90;;;;;;4024580;29;20186;-89
2020/12/15 13:54:15;;;;;;;13.70;4.90;;;12.80;99.90;;;;;;3994112;29;20215;-93
2020/12/15 13:56:15;;;;;;;21.60;5.18;;;12.60;99.90;;;;;;4024393;29;20645;-92
2020/12/15 13:58:16;;;;;;;18.20;5.90;;;12.40;99.90;;;;;;4009293;29;20176;-92
2020/12/15 14:00:17;;;;;;;14.90;5.60;;;12.10;99.90;;;;;;4024484;29;20182;-95
2020/12/15 14:02:18;;;;;;;11.98;5.22;;;11.90;99.90;;;;;;3993965;29;20567;-92
2020/12/15 14:04:18;;;;;;;14.40;5.13;;;11.80;99.90;;;;;;4024392;29;20182;-93
2020/12/15 14:06:20;;;;;;;14.43;4.57;;;11.70;99.90;;;;;;3993966;29;20239;-90
2020/12/15 14:08:20;;;;;;;15.75;4.43;;;11.70;99.90;;;;;;4009108;29;20186;-94
2020/12/15 14:10:21;;;;;;;14.70;4.72;;;11.80;99.90;;;;;;4024300;29;20170;-90
2020/12/15 14:12:22;;;;;;;11.90;5.22;;;11.80;99.90;;;;;;4009035;29;20218;-93
2020/12/15 14:14:22;;;;;;;14.20;5.32;;;11.90;99.90;;;;;;4008945;29;20218;-91
2020/12/15 14:16:23;;;;;;;13.98;5.40;;;12.00;99.90;;;;;;4008608;29;20255;-91
2020/12/15 14:18:24;;;;;;;22.05;5.38;;;12.00;99.90;;;;;;4008905;29;20179;-93
2020/12/15 14:20:25;;;;;;;15.90;5.30;;;11.90;99.90;;;;;;4008866;29;20647;-94
2020/12/15 14:22:25;;;;;;;14.02;4.88;;;11.90;99.90;;;;;;4008992;29;20685;-93
2020/12/15 14:24:26;;;;;;;14.13;5.03;;;11.90;99.90;;;;;;4008914;29;20242;-93
2020/12/15 14:26:27;;;;;;;13.45;4.82;;;11.80;99.90;;;;;;4024024;29;20214;-91
2020/12/15 14:28:27;;;;;;;11.90;5.00;;;11.60;99.90;;;;;;4024039;29;20231;-93
2020/12/15 14:30:28;;;;;;;11.23;4.65;;;11.60;99.90;;;;;;4008780;29;20179;-92
2020/12/15 14:32:29;;;;;;;14.77;4.70;;;11.60;99.90;;;;;;4023892;29;20178;-92
2020/12/15 14:34:30;;;;;;;18.00;4.93;;;11.70;99.90;;;;;;4008637;29;20198;-92
2020/12/15 14:36:30;;;;;;;18.88;4.72;;;11.40;99.90;;;;;;4008539;29;20206;-91
2020/12/15 14:38:31;;;;;;;15.82;5.00;;;11.60;99.90;;;;;;4008575;29;20175;-94
2020/12/15 14:40:32;;;;;;;17.77;4.55;;;11.60;99.90;;;;;;4022743;29;20266;-95
2020/12/15 14:42:32;;;;;;;16.55;4.95;;;11.60;99.90;;;;;;4008460;29;20167;-90
2020/12/15 14:44:33;;;;;;;12.20;4.63;;;11.40;99.90;;;;;;4023732;29;20175;-92
2020/12/15 14:46:34;;;;;;;16.05;4.85;;;11.40;99.90;;;;;;4008450;29;20191;-92
2020/12/15 14:48:34;;;;;;;13.90;5.30;;;11.30;99.90;;;;;;4023800;29;20183;-92
2020/12/15 14:50:35;;;;;;;13.45;4.78;;;11.30;99.90;;;;;;4008585;29;20181;-92
2020/12/15 14:52:37;;;;;;;13.32;5.00;;;11.30;99.90;;;;;;4023734;29;20182;-92
2020/12/15 14:54:37;;;;;;;13.57;5.30;;;11.20;99.90;;;;;;4008465;29;20729;-92
2020/12/15 14:56:38;;;;;;;16.90;4.90;;;11.00;99.90;;;;;;4008598;29;20203;-88
2020/12/15 14:58:39;;;;;;;16.42;5.28;;;11.00;99.90;;;;;;4008469;29;20239;-92
2020/12/15 15:00:39;;;;;;;12.80;4.78;;;11.00;99.90;;;;;;4008570;29;20199;-93
2020/12/15 15:02:40;;;;;;;13.20;4.55;;;10.90;99.90;;;;;;4009149;29;20307;-94
2020/12/15 15:04:41;;;;;;;12.77;4.35;;;10.90;99.90;;;;;;4008454;29;20273;-94
2020/12/15 15:06:41;;;;;;;11.73;4.20;;;10.80;99.90;;;;;;4008500;29;20206;-95
2020/12/15 15:08:42;;;;;;;16.67;4.60;;;10.60;99.90;;;;;;4023431;29;20674;-93
2020/12/15 15:10:43;;;;;;;19.40;3.55;;;10.70;99.90;;;;;;4023456;29;20166;-91
2020/12/15 15:12:43;;;;;;;15.52;4.40;;;10.60;99.90;;;;;;3993265;29;20204;-94
2020/12/15 15:14:44;;;;;;;13.02;4.90;;;10.50;99.90;;;;;;4023193;29;20214;-92
2020/12/15 15:16:45;;;;;;;12.53;4.80;;;10.50;99.90;;;;;;3992702;29;20231;-94
2020/12/15 15:18:46;;;;;;;13.70;5.50;;;10.40;99.90;;;;;;3993029;29;20571;-94
2020/12/15 15:20:47;;;;;;;17.15;5.43;;;10.30;99.90;;;;;;4008031;29;20230;-94
2020/12/15 15:22:47;;;;;;;14.05;5.05;;;10.30;99.90;;;;;;4023297;29;20174;-91
2020/12/15 15:24:48;;;;;;;15.10;5.30;;;10.30;99.90;;;;;;4023396;29;20166;-95
2020/12/15 15:26:49;;;;;;;15.73;5.40;;;10.20;99.90;;;;;;4007823;29;20203;-93
2020/12/15 15:28:50;;;;;;;12.55;4.70;;;10.20;99.90;;;;;;4023068;29;20230;-94
2020/12/15 15:30:51;;;;;;;11.27;4.95;;;10.20;99.90;;;;;;4023080;29;20186;-94
2020/12/15 15:32:51;;;;;;;17.88;5.38;;;10.10;99.90;;;;;;4023156;29;20178;-90
2020/12/15 15:34:52;;;;;;;19.23;4.55;;;10.10;99.90;;;;;;4007633;29;20681;-94
2020/12/15 15:36:52;;;;;;;8.70;4.50;;;10.10;99.90;;;;;;4022907;29;20200;-93
2020/12/15 15:38:53;;;;;;;13.90;4.22;;;10.20;99.90;;;;;;4007663;29;20266;-91
2020/12/15 15:40:54;;;;;;;14.25;4.65;;;10.10;99.90;;;;;;4023800;29;20226;-94
2020/12/15 15:42:55;;;;;;;13.40;4.45;;;10.10;99.90;;;;;;4007815;29;20634;-90
2020/12/15 15:44:55;;;;;;;11.30;4.18;;;10.10;99.90;;;;;;4022856;29;20179;-94
2020/12/15 15:46:56;;;;;;;16.95;4.28;;;10.10;99.90;;;;;;4007779;29;20736;-93
2020/12/15 15:48:57;;;;;;;13.05;4.75;;;10.20;99.90;;;;;;4022866;29;20179;-95
2020/12/15 15:50:58;;;;;;;17.85;4.25;;;10.10;99.90;;;;;;4008054;29;20639;-94
2020/12/15 15:52:59;;;;;;;9.50;4.32;;;10.00;99.90;;;;;;4007999;29;20179;-93
2020/12/15 15:55:00;;;;;;;9.25;4.75;;;10.00;99.90;;;;;;4022765;29;20214;-95
2020/12/15 15:57:01;;;;;;;17.92;4.65;;;9.90;99.90;;;;;;4007508;29;20210;-94
2020/12/15 15:59:01;;;;;;;11.03;4.33;;;9.80;99.90;;;;;;4007731;29;20187;-93
2020/12/15 16:01:03;;;;;;;13.10;4.45;;;9.80;99.90;;;;;;3992504;29;20652;-94
2020/12/15 16:03:04;;;;;;;17.40;4.65;;;9.70;99.90;;;;;;4007434;29;20175;-95
2020/12/15 16:05:05;;;;;;;11.50;4.75;;;9.70;99.90;;;;;;4007458;29;20261;-94
2020/12/15 16:07:06;;;;;;;13.80;4.83;;;9.60;99.90;;;;;;3992359;29;20199;-90
2020/12/15 16:09:08;;;;;;;11.93;4.57;;;9.70;99.90;;;;;;4007416;29;20571;-95
2020/12/15 16:11:12;;;;;;;9.50;4.77;;;9.70;99.90;;;;;;3992428;29;20179;-94
2020/12/15 16:13:13;;;;;;;14.40;5.43;;;9.70;99.90;;;;;;4007429;29;20516;-91
2020/12/15 16:15:14;;;;;;;15.25;5.55;;;9.60;99.90;;;;;;4007255;29;20222;-93
2020/12/15 16:17:15;;;;;;;15.93;5.80;;;9.50;99.90;;;;;;3992381;29;20736;-91
2020/12/15 16:19:16;;;;;;;16.00;5.73;;;9.50;99.90;;;;;;4008088;29;20181;-96
2020/12/15 16:21:17;;;;;;;13.13;5.47;;;9.40;99.90;;;;;;4007758;29;20175;-95
2020/12/15 16:23:20;;;;;;;22.57;5.97;;;9.50;99.90;;;;;;3993242;29;20195;-95
2020/12/15 16:25:21;;;;;;;16.05;5.80;;;9.40;99.90;;;;;;4007937;29;20179;-94
2020/12/15 16:27:22;;;;;;;11.83;5.00;;;9.40;99.90;;;;;;4023008;29;20175;-95
2020/12/15 16:29:25;;;;;;;13.52;6.00;;;9.40;99.90;;;;;;4007867;29;20239;-95
2020/12/15 16:31:26;;;;;;;16.03;6.27;;;9.50;99.90;;;;;;4023099;29;20202;-94
2020/12/15 16:33:27;;;;;;;17.33;5.67;;;9.50;99.90;;;;;;4007586;29;20189;-95
2020/12/15 16:35:28;;;;;;;12.57;5.30;;;9.40;99.90;;;;;;4007845;29;20219;-95
2020/12/15 16:37:32;;;;;;;15.70;6.50;;;9.40;99.90;;;;;;4022801;29;20253;-95
2020/12/15 16:39:43;;;;;;;13.35;6.75;;;9.30;99.90;;;;;;4008763;29;20190;-95
2020/12/15 16:41:47;;;;;;;14.93;6.57;;;9.30;99.90;;;;;;4007184;29;20282;-95
2020/12/15 16:43:47;;;;;;;18.65;7.25;;;9.30;99.90;;;;;;4008706;29;20222;-95
2020/12/15 16:45:51;;;;;;;18.60;8.27;;;9.20;99.90;;;;;;4024521;29;20249;-95
2020/12/15 16:47:52;;;;;;;15.40;7.10;;;9.10;99.90;;;;;;4008761;29;20195;-94
2020/12/15 16:49:57;;;;;;;19.23;8.83;;;9.20;99.90;;;;;;4009172;29;20210;-93
2020/12/15 16:52:02;;;;;;;18.50;8.10;;;9.20;99.90;;;;;;3993494;29;20195;-95
2020/12/15 16:54:13;;;;;;;19.63;8.43;;;9.30;99.90;;;;;;4009071;29;20270;-95
2020/12/15 16:56:14;;;;;;;17.10;8.80;;;9.40;99.90;;;;;;3993764;29;20283;-95
2020/12/15 16:58:21;;;;;;;21.03;7.97;;;9.40;99.90;;;;;;4009820;29;20163;-95
2020/12/15 17:00:22;;;;;;;18.17;8.20;;;9.40;99.90;;;;;;4009680;29;20191;-95
2020/12/15 17:02:25;;;;;;;18.57;8.93;;;9.40;99.90;;;;;;4008846;29;20183;-94
2020/12/15 17:04:26;;;;;;;18.70;9.20;;;9.40;99.90;;;;;;4011622;29;20179;-95
2020/12/15 17:06:27;;;;;;;18.80;9.60;;;9.20;99.90;;;;;;4026506;29;20271;-94
2020/12/15 17:08:29;;;;;;;21.97;10.83;;;9.20;99.90;;;;;;4011024;29;20186;-94
2020/12/15 17:10:32;;;;;;;26.20;9.70;;;9.20;99.90;;;;;;4011030;29;20186;-94
2020/12/15 17:12:36;;;;;;;25.70;9.90;;;9.10;99.90;;;;;;4011450;29;20178;-94
2020/12/15 17:14:38;;;;;;;19.80;9.23;;;9.10;99.90;;;;;;4010726;29;20301;-94
2020/12/15 17:16:44;;;;;;;18.30;9.20;;;9.00;99.90;;;;;;4011794;29;20295;-95
2020/12/15 17:18:57;;;;;;;19.40;9.83;;;8.90;99.90;;;;;;4015700;29;20202;-95
2020/12/15 17:20:58;;;;;;;21.27;9.70;;;9.00;99.90;;;;;;4022726;29;20174;-94
2020/12/15 17:23:15;;;;;;;26.03;10.37;;;9.00;99.90;;;;;;4031235;29;20175;-93
2020/12/15 17:25:18;;;;;;;21.63;10.33;;;9.10;99.90;;;;;;4026303;29;20182;-95
2020/12/15 17:27:19;;;;;;;21.90;10.70;;;9.10;99.90;;;;;;4011035;29;20174;-95
2020/12/15 17:29:29;;;;;;;24.83;10.70;;;9.10;99.90;;;;;;4016740;29;20178;-93
2020/12/15 17:31:40;;;;;;;21.23;11.03;;;8.90;99.90;;;;;;4001086;29;20189;-95
2020/12/15 17:33:49;;;;;;;22.27;10.77;;;8.80;99.90;;;;;;4029682;29;20178;-94
2020/12/15 17:35:56;;;;;;;24.60;11.20;;;8.70;99.90;;;;;;4014365;29;20412;-95
2020/12/15 17:38:00;;;;;;;26.33;11.17;;;8.60;99.90;;;;;;4030639;29;20673;-95
2020/12/15 17:40:08;;;;;;;30.57;10.90;;;8.60;99.90;;;;;;4046264;29;20172;-95
2020/12/15 17:42:12;;;;;;;24.50;11.03;;;8.60;99.90;;;;;;4014689;29;20175;-92
2020/12/15 17:44:22;;;;;;;32.47;11.23;;;8.60;99.90;;;;;;4030895;29;20178;-94
2020/12/15 17:46:38;;;;;;;27.13;11.73;;;8.70;99.90;;;;;;4030296;29;20210;-93
2020/12/15 17:48:40;;;;;;;23.60;11.23;;;8.80;99.90;;;;;;4032698;29;20182;-94
2020/12/15 17:50:44;;;;;;;25.83;11.47;;;8.80;99.90;;;;;;4045364;29;20300;-94
2020/12/15 17:52:52;;;;;;;23.03;10.60;;;8.80;99.90;;;;;;4044324;29;20241;-95
2020/12/15 17:54:53;;;;;;;20.43;11.13;;;9.10;99.90;;;;;;4040075;29;20197;-94
2020/12/15 17:56:54;;;;;;;21.53;10.60;;;9.20;99.90;;;;;;4024458;29;20206;-95
2020/12/15 17:58:55;;;;;;;21.20;10.67;;;9.20;99.90;;;;;;4024830;29;20178;-93
2020/12/15 18:00:57;;;;;;;19.57;9.23;;;8.90;99.90;;;;;;4009571;29;20730;-94
2020/12/15 18:02:58;;;;;;;24.57;9.70;;;8.70;99.90;;;;;;4040340;29;20181;-94
2020/12/15 18:04:58;;;;;;;24.87;10.33;;;8.60;99.90;;;;;;4024710;29;20186;-93
2020/12/15 18:06:59;;;;;;;21.97;10.27;;;8.60;99.90;;;;;;4009534;29;20198;-95
2020/12/15 18:09:00;;;;;;;22.87;10.20;;;8.70;99.90;;;;;;4009504;29;20183;-94
2020/12/15 18:11:01;;;;;;;26.23;10.93;;;8.60;99.90;;;;;;4024590;29;20205;-95
2020/12/15 18:13:02;;;;;;;24.70;11.13;;;8.50;99.90;;;;;;4040166;29;20260;-94
